sensor_id;sensor_type;location;lat;lon;timestamp;pressure;altitude;pressure_sealevel;temperature;humidity
12793;BME280;6460;42.684;23.260;2023-05-15T00:01:07;94560.69;;;12.38;100.00
12793;BME280;6460;42.684;23.260;2023-05-15T00:03:35;94556.91;;;12.43;100.00
12793;BME280;6460;42.684;23.260;2023-05-15T00:06:02;94546.91;;;12.43;100.00
12793;BME280;6460;42.684;23.260;2023-05-15T00:08:30;94533.09;;;12.48;100.00
12793;BME280;6460;42.684;23.260;2023-05-15T00:10:58;94549.59;;;12.43;100.00
12793;BME280;6460;42.684;23.260;2023-05-15T00:13:27;94562.34;;;12.46;100.00
12793;BME280;6460;42.684;23.260;2023-05-15T00:15:54;94581.94;;;12.43;100.00
12793;BME280;6460;42.684;23.260;2023-05-15T00:18:22;94571.75;;;12.30;100.00
12793;BME280;6460;42.684;23.260;2023-05-15T00:20:49;94574.41;;;12.26;100.00
12793;BME280;6460;42.684;23.260;2023-05-15T00:23:17;94580.34;;;12.09;100.00
12793;BME280;6460;42.684;23.260;2023-05-15T00:25:44;94581.47;;;12.08;100.00
12793;BME280;6460;42.684;23.260;2023-05-15T00:28:12;94577.78;;;11.90;100.00
12793;BME280;6460;42.684;23.260;2023-05-15T00:30:40;94578.28;;;11.73;100.00
12793;BME280;6460;42.684;23.260;2023-05-15T00:33:08;94597.34;;;11.64;100.00
12793;BME280;6460;42.684;23.260;2023-05-15T00:35:35;94590.06;;;11.64;100.00
12793;BME280;6460;42.684;23.260;2023-05-15T00:38:02;94581.94;;;11.61;100.00
12793;BME280;6460;42.684;23.260;2023-05-15T00:40:30;94577.88;;;11.48;100.00
12793;BME280;6460;42.684;23.260;2023-05-15T00:42:58;94578.75;;;11.55;100.00
12793;BME280;6460;42.684;23.260;2023-05-15T00:45:27;94591.50;;;11.36;100.00
12793;BME280;6460;42.684;23.260;2023-05-15T00:47:57;94589.47;;;11.29;100.00
12793;BME280;6460;42.684;23.260;2023-05-15T00:50:24;94590.72;;;11.35;100.00
12793;BME280;6460;42.684;23.260;2023-05-15T00:52:52;94587.72;;;11.40;100.00
12793;BME280;6460;42.684;23.260;2023-05-15T00:55:19;94578.53;;;11.41;100.00
12793;BME280;6460;42.684;23.260;2023-05-15T00:57:47;94574.16;;;11.33;100.00
12793;BME280;6460;42.684;23.260;2023-05-15T01:00:15;94579.25;;;11.38;100.00
12793;BME280;6460;42.684;23.260;2023-05-15T01:02:43;94585.28;;;11.54;100.00
12793;BME280;6460;42.684;23.260;2023-05-15T01:05:12;94583.38;;;11.55;100.00
12793;BME280;6460;42.684;23.260;2023-05-15T01:07:46;94590.22;;;11.52;100.00
12793;BME280;6460;42.684;23.260;2023-05-15T01:10:15;94587.31;;;11.38;100.00
12793;BME280;6460;42.684;23.260;2023-05-15T01:12:45;94568.91;;;11.40;100.00
12793;BME280;6460;42.684;23.260;2023-05-15T01:15:13;94568.78;;;11.33;100.00
12793;BME280;6460;42.684;23.260;2023-05-15T01:17:40;94563.09;;;11.38;100.00
12793;BME280;6460;42.684;23.260;2023-05-15T01:20:10;94552.81;;;11.44;100.00
12793;BME280;6460;42.684;23.260;2023-05-15T01:22:50;94555.56;;;11.47;100.00
12793;BME280;6460;42.684;23.260;2023-05-15T01:25:43;94551.09;;;11.58;100.00
12793;BME280;6460;42.684;23.260;2023-05-15T01:28:17;94538.53;;;11.66;100.00
12793;BME280;6460;42.684;23.260;2023-05-15T01:30:47;94547.75;;;11.65;100.00
12793;BME280;6460;42.684;23.260;2023-05-15T01:33:19;94553.13;;;11.65;100.00
12793;BME280;6460;42.684;23.260;2023-05-15T01:35:52;94542.72;;;11.63;100.00
12793;BME280;6460;42.684;23.260;2023-05-15T01:38:28;94542.88;;;11.71;100.00
12793;BME280;6460;42.684;23.260;2023-05-15T01:41:01;94537.50;;;11.71;100.00
12793;BME280;6460;42.684;23.260;2023-05-15T01:43:32;94528.69;;;11.74;100.00
12793;BME280;6460;42.684;23.260;2023-05-15T01:46:01;94532.16;;;11.74;100.00
12793;BME280;6460;42.684;23.260;2023-05-15T01:48:30;94542.94;;;11.74;100.00
12793;BME280;6460;42.684;23.260;2023-05-15T01:51:03;94525.22;;;11.73;100.00
12793;BME280;6460;42.684;23.260;2023-05-15T01:53:32;94529.03;;;11.72;100.00
12793;BME280;6460;42.684;23.260;2023-05-15T01:56:02;94526.78;;;11.74;100.00
12793;BME280;6460;42.684;23.260;2023-05-15T01:58:31;94535.72;;;11.82;100.00
12793;BME280;6460;42.684;23.260;2023-05-15T02:00:59;94547.41;;;11.66;100.00
12793;BME280;6460;42.684;23.260;2023-05-15T02:03:27;94543.88;;;11.62;100.00
12793;BME280;6460;42.684;23.260;2023-05-15T02:05:58;94543.44;;;11.34;100.00
12793;BME280;6460;42.684;23.260;2023-05-15T02:08:25;94551.91;;;11.36;100.00
12793;BME280;6460;42.684;23.260;2023-05-15T02:10:55;94541.34;;;11.24;100.00
12793;BME280;6460;42.684;23.260;2023-05-15T02:13:24;94546.19;;;11.38;100.00
12793;BME280;6460;42.684;23.260;2023-05-15T02:15:53;94529.38;;;11.44;100.00
12793;BME280;6460;42.684;23.260;2023-05-15T02:18:21;94531.34;;;11.47;100.00
12793;BME280;6460;42.684;23.260;2023-05-15T02:20:48;94536.31;;;11.45;100.00
12793;BME280;6460;42.684;23.260;2023-05-15T02:23:16;94537.06;;;11.46;100.00
12793;BME280;6460;42.684;23.260;2023-05-15T02:25:53;94528.41;;;11.33;100.00
12793;BME280;6460;42.684;23.260;2023-05-15T02:28:29;94525.06;;;11.17;100.00
12793;BME280;6460;42.684;23.260;2023-05-15T02:31:07;94514.44;;;11.24;100.00
12793;BME280;6460;42.684;23.260;2023-05-15T02:33:44;94504.94;;;11.30;100.00
12793;BME280;6460;42.684;23.260;2023-05-15T02:36:19;94508.56;;;11.41;100.00
12793;BME280;6460;42.684;23.260;2023-05-15T02:38:50;94514.38;;;11.21;100.00
12793;BME280;6460;42.684;23.260;2023-05-15T02:41:18;94523.63;;;11.23;100.00
12793;BME280;6460;42.684;23.260;2023-05-15T02:43:49;94527.69;;;11.36;100.00
12793;BME280;6460;42.684;23.260;2023-05-15T02:46:22;94533.31;;;11.50;100.00
12793;BME280;6460;42.684;23.260;2023-05-15T02:48:51;94518.09;;;11.35;100.00
12793;BME280;6460;42.684;23.260;2023-05-15T02:51:19;94512.75;;;11.65;100.00
12793;BME280;6460;42.684;23.260;2023-05-15T02:53:48;94498.28;;;11.73;100.00
12793;BME280;6460;42.684;23.260;2023-05-15T02:56:15;94506.56;;;11.61;100.00
12793;BME280;6460;42.684;23.260;2023-05-15T02:58:43;94498.34;;;11.77;100.00
12793;BME280;6460;42.684;23.260;2023-05-15T03:01:11;94490.31;;;11.80;100.00
12793;BME280;6460;42.684;23.260;2023-05-15T03:03:40;94498.44;;;11.84;100.00
12793;BME280;6460;42.684;23.260;2023-05-15T03:06:07;94506.09;;;11.82;100.00
12793;BME280;6460;42.684;23.260;2023-05-15T03:08:35;94514.22;;;11.85;100.00
12793;BME280;6460;42.684;23.260;2023-05-15T03:11:02;94523.06;;;11.86;100.00
12793;BME280;6460;42.684;23.260;2023-05-15T03:13:30;94518.88;;;11.88;100.00
12793;BME280;6460;42.684;23.260;2023-05-15T03:15:57;94509.28;;;11.91;100.00
12793;BME280;6460;42.684;23.260;2023-05-15T03:18:24;94526.22;;;11.91;100.00
12793;BME280;6460;42.684;23.260;2023-05-15T03:20:53;94520.00;;;11.87;100.00
12793;BME280;6460;42.684;23.260;2023-05-15T03:23:21;94514.22;;;11.85;100.00
12793;BME280;6460;42.684;23.260;2023-05-15T03:25:48;94511.53;;;11.85;100.00
12793;BME280;6460;42.684;23.260;2023-05-15T03:28:15;94517.31;;;11.87;100.00
12793;BME280;6460;42.684;23.260;2023-05-15T03:30:43;94514.72;;;11.94;100.00
12793;BME280;6460;42.684;23.260;2023-05-15T03:33:10;94510.13;;;11.95;100.00
12793;BME280;6460;42.684;23.260;2023-05-15T03:35:37;94498.94;;;11.93;100.00
12793;BME280;6460;42.684;23.260;2023-05-15T03:38:06;94506.97;;;11.89;100.00
12793;BME280;6460;42.684;23.260;2023-05-15T03:40:34;94501.88;;;11.84;100.00
12793;BME280;6460;42.684;23.260;2023-05-15T03:43:01;94497.16;;;11.74;100.00
12793;BME280;6460;42.684;23.260;2023-05-15T03:45:28;94489.09;;;11.78;100.00
12793;BME280;6460;42.684;23.260;2023-05-15T03:47:56;94499.97;;;11.85;100.00
12793;BME280;6460;42.684;23.260;2023-05-15T03:50:23;94512.72;;;11.88;100.00
12793;BME280;6460;42.684;23.260;2023-05-15T03:52:50;94512.31;;;11.86;100.00
12793;BME280;6460;42.684;23.260;2023-05-15T03:55:19;94509.50;;;11.79;100.00
12793;BME280;6460;42.684;23.260;2023-05-15T03:57:46;94514.84;;;11.75;100.00
12793;BME280;6460;42.684;23.260;2023-05-15T04:00:14;94509.72;;;11.66;100.00
12793;BME280;6460;42.684;23.260;2023-05-15T04:02:41;94508.09;;;11.62;100.00
12793;BME280;6460;42.684;23.260;2023-05-15T04:05:08;94514.50;;;11.77;100.00
12793;BME280;6460;42.684;23.260;2023-05-15T04:07:36;94523.50;;;11.65;100.00
12793;BME280;6460;42.684;23.260;2023-05-15T04:10:04;94512.47;;;11.70;100.00
12793;BME280;6460;42.684;23.260;2023-05-15T04:12:33;94522.16;;;11.75;100.00
12793;BME280;6460;42.684;23.260;2023-05-15T04:15:13;94524.44;;;11.73;100.00
12793;BME280;6460;42.684;23.260;2023-05-15T04:17:41;94534.34;;;11.68;100.00
12793;BME280;6460;42.684;23.260;2023-05-15T04:20:11;94535.19;;;11.73;100.00
12793;BME280;6460;42.684;23.260;2023-05-15T04:22:38;94525.31;;;11.80;100.00
12793;BME280;6460;42.684;23.260;2023-05-15T04:25:06;94523.38;;;11.81;100.00
12793;BME280;6460;42.684;23.260;2023-05-15T04:27:35;94531.16;;;11.86;100.00
12793;BME280;6460;42.684;23.260;2023-05-15T04:30:03;94532.00;;;11.90;100.00
12793;BME280;6460;42.684;23.260;2023-05-15T04:32:31;94514.66;;;11.91;100.00
12793;BME280;6460;42.684;23.260;2023-05-15T04:34:59;94504.72;;;11.95;100.00
12793;BME280;6460;42.684;23.260;2023-05-15T04:37:27;94499.94;;;11.81;100.00
12793;BME280;6460;42.684;23.260;2023-05-15T04:39:54;94488.47;;;11.88;100.00
12793;BME280;6460;42.684;23.260;2023-05-15T04:42:22;94478.63;;;11.99;100.00
12793;BME280;6460;42.684;23.260;2023-05-15T04:44:52;94483.59;;;11.97;100.00
12793;BME280;6460;42.684;23.260;2023-05-15T04:47:19;94511.59;;;11.89;100.00
12793;BME280;6460;42.684;23.260;2023-05-15T04:49:47;94515.81;;;11.63;100.00
12793;BME280;6460;42.684;23.260;2023-05-15T04:52:15;94507.09;;;12.00;100.00
12793;BME280;6460;42.684;23.260;2023-05-15T04:54:42;94515.66;;;12.05;100.00
12793;BME280;6460;42.684;23.260;2023-05-15T04:57:09;94512.63;;;12.10;100.00
12793;BME280;6460;42.684;23.260;2023-05-15T04:59:37;94505.38;;;12.14;100.00
12793;BME280;6460;42.684;23.260;2023-05-15T05:02:07;94492.72;;;12.18;100.00
12793;BME280;6460;42.684;23.260;2023-05-15T05:04:35;94490.00;;;12.15;100.00
12793;BME280;6460;42.684;23.260;2023-05-15T05:07:03;94487.00;;;12.24;100.00
12793;BME280;6460;42.684;23.260;2023-05-15T05:09:30;94495.09;;;12.24;100.00
12793;BME280;6460;42.684;23.260;2023-05-15T05:11:58;94490.09;;;12.26;100.00
12793;BME280;6460;42.684;23.260;2023-05-15T05:14:26;94496.31;;;12.30;100.00
12793;BME280;6460;42.684;23.260;2023-05-15T05:16:53;94495.94;;;12.31;100.00
12793;BME280;6460;42.684;23.260;2023-05-15T05:19:21;94489.44;;;12.36;100.00
12793;BME280;6460;42.684;23.260;2023-05-15T05:21:48;94489.88;;;12.41;100.00
12793;BME280;6460;42.684;23.260;2023-05-15T05:24:16;94499.97;;;12.44;100.00
12793;BME280;6460;42.684;23.260;2023-05-15T05:26:44;94502.56;;;12.37;100.00
12793;BME280;6460;42.684;23.260;2023-05-15T05:29:11;94498.59;;;12.28;100.00
12793;BME280;6460;42.684;23.260;2023-05-15T05:31:39;94499.22;;;12.47;100.00
12793;BME280;6460;42.684;23.260;2023-05-15T05:34:06;94494.31;;;12.56;100.00
12793;BME280;6460;42.684;23.260;2023-05-15T05:36:35;94492.00;;;12.58;100.00
12793;BME280;6460;42.684;23.260;2023-05-15T05:39:03;94478.53;;;12.58;100.00
12793;BME280;6460;42.684;23.260;2023-05-15T05:41:30;94488.66;;;12.68;100.00
12793;BME280;6460;42.684;23.260;2023-05-15T05:46:32;94479.06;;;12.74;100.00
12793;BME280;6460;42.684;23.260;2023-05-15T05:49:00;94495.38;;;12.85;100.00
12793;BME280;6460;42.684;23.260;2023-05-15T05:51:27;94501.16;;;12.87;100.00
12793;BME280;6460;42.684;23.260;2023-05-15T05:53:55;94495.59;;;13.10;100.00
12793;BME280;6460;42.684;23.260;2023-05-15T05:56:22;94493.03;;;13.24;100.00
12793;BME280;6460;42.684;23.260;2023-05-15T05:58:51;94495.75;;;13.24;100.00
12793;BME280;6460;42.684;23.260;2023-05-15T06:01:18;94493.03;;;13.24;100.00
12793;BME280;6460;42.684;23.260;2023-05-15T06:03:46;94505.44;;;13.32;100.00
12793;BME280;6460;42.684;23.260;2023-05-15T06:06:13;94501.56;;;13.30;100.00
12793;BME280;6460;42.684;23.260;2023-05-15T06:08:41;94505.41;;;13.29;100.00
12793;BME280;6460;42.684;23.260;2023-05-15T06:11:09;94490.78;;;13.33;100.00
12793;BME280;6460;42.684;23.260;2023-05-15T06:13:36;94481.94;;;13.36;100.00
12793;BME280;6460;42.684;23.260;2023-05-15T06:16:03;94478.56;;;13.46;100.00
12793;BME280;6460;42.684;23.260;2023-05-15T06:18:31;94479.31;;;13.03;100.00
12793;BME280;6460;42.684;23.260;2023-05-15T06:20:58;94480.91;;;13.55;100.00
12793;BME280;6460;42.684;23.260;2023-05-15T06:23:26;94486.25;;;13.48;100.00
12793;BME280;6460;42.684;23.260;2023-05-15T06:25:53;94487.19;;;13.73;100.00
12793;BME280;6460;42.684;23.260;2023-05-15T06:28:22;94484.91;;;13.78;100.00
12793;BME280;6460;42.684;23.260;2023-05-15T06:30:49;94478.16;;;14.20;100.00
12793;BME280;6460;42.684;23.260;2023-05-15T06:33:17;94485.94;;;14.32;100.00
12793;BME280;6460;42.684;23.260;2023-05-15T06:35:46;94487.97;;;14.53;100.00
12793;BME280;6460;42.684;23.260;2023-05-15T06:38:13;94479.13;;;14.70;100.00
12793;BME280;6460;42.684;23.260;2023-05-15T06:40:40;94491.50;;;14.74;100.00
12793;BME280;6460;42.684;23.260;2023-05-15T06:43:08;94497.69;;;14.64;100.00
12793;BME280;6460;42.684;23.260;2023-05-15T06:45:37;94490.72;;;14.70;100.00
12793;BME280;6460;42.684;23.260;2023-05-15T06:48:05;94495.38;;;14.70;100.00
12793;BME280;6460;42.684;23.260;2023-05-15T06:50:32;94489.22;;;15.01;100.00
12793;BME280;6460;42.684;23.260;2023-05-15T06:52:59;94503.91;;;14.97;100.00
12793;BME280;6460;42.684;23.260;2023-05-15T06:55:26;94503.19;;;15.21;100.00
12793;BME280;6460;42.684;23.260;2023-05-15T06:57:53;94507.00;;;14.92;100.00
12793;BME280;6460;42.684;23.260;2023-05-15T07:00:20;94500.09;;;15.40;100.00
12793;BME280;6460;42.684;23.260;2023-05-15T07:02:49;94495.06;;;15.49;100.00
12793;BME280;6460;42.684;23.260;2023-05-15T07:05:17;94494.66;;;15.44;100.00
12793;BME280;6460;42.684;23.260;2023-05-15T07:07:44;94491.19;;;15.29;100.00
12793;BME280;6460;42.684;23.260;2023-05-15T07:10:12;94484.25;;;15.63;100.00
12793;BME280;6460;42.684;23.260;2023-05-15T07:12:39;94487.69;;;15.74;100.00
12793;BME280;6460;42.684;23.260;2023-05-15T07:15:07;94484.25;;;15.56;100.00
12793;BME280;6460;42.684;23.260;2023-05-15T07:17:53;94480.72;;;15.42;100.00
12793;BME280;6460;42.684;23.260;2023-05-15T07:20:21;94491.53;;;15.84;100.00
12793;BME280;6460;42.684;23.260;2023-05-15T07:22:48;94499.31;;;15.71;100.00
12793;BME280;6460;42.684;23.260;2023-05-15T07:25:15;94498.94;;;15.62;100.00
12793;BME280;6460;42.684;23.260;2023-05-15T07:27:42;94506.28;;;15.72;100.00
12793;BME280;6460;42.684;23.260;2023-05-15T07:30:11;94502.41;;;15.73;100.00
12793;BME280;6460;42.684;23.260;2023-05-15T07:32:38;94493.09;;;15.28;100.00
12793;BME280;6460;42.684;23.260;2023-05-15T07:35:07;94481.53;;;15.53;100.00
12793;BME280;6460;42.684;23.260;2023-05-15T07:37:36;94493.50;;;15.38;100.00
12793;BME280;6460;42.684;23.260;2023-05-15T07:40:04;94493.16;;;15.53;100.00
12793;BME280;6460;42.684;23.260;2023-05-15T07:42:32;94483.06;;;15.57;100.00
12793;BME280;6460;42.684;23.260;2023-05-15T07:44:59;94490.41;;;15.14;100.00
12793;BME280;6460;42.684;23.260;2023-05-15T07:47:27;94481.91;;;15.23;100.00
12793;BME280;6460;42.684;23.260;2023-05-15T07:49:54;94489.66;;;15.49;100.00
12793;BME280;6460;42.684;23.260;2023-05-15T07:52:23;94499.69;;;15.45;100.00
12793;BME280;6460;42.684;23.260;2023-05-15T07:54:50;94495.06;;;15.49;100.00
12793;BME280;6460;42.684;23.260;2023-05-15T07:57:18;94499.31;;;15.57;100.00
12793;BME280;6460;42.684;23.260;2023-05-15T07:59:45;94505.13;;;15.31;100.00
12793;BME280;6460;42.684;23.260;2023-05-15T08:02:12;94515.59;;;15.50;100.00
12793;BME280;6460;42.684;23.260;2023-05-15T08:04:39;94517.50;;;15.71;100.00
12793;BME280;6460;42.684;23.260;2023-05-15T08:07:06;94511.34;;;15.49;100.00
12793;BME280;6460;42.684;23.260;2023-05-15T08:09:34;94511.72;;;15.62;100.00
12793;BME280;6460;42.684;23.260;2023-05-15T08:12:15;94505.50;;;15.54;100.00
12793;BME280;6460;42.684;23.260;2023-05-15T08:14:46;94511.66;;;15.79;100.00
12793;BME280;6460;42.684;23.260;2023-05-15T08:17:13;94510.88;;;15.93;100.00
12793;BME280;6460;42.684;23.260;2023-05-15T08:19:41;94513.59;;;15.93;100.00
12793;BME280;6460;42.684;23.260;2023-05-15T08:22:08;94500.44;;;15.92;100.00
12793;BME280;6460;42.684;23.260;2023-05-15T08:24:38;94511.66;;;15.86;100.00
12793;BME280;6460;42.684;23.260;2023-05-15T08:27:06;94506.28;;;15.76;100.00
12793;BME280;6460;42.684;23.260;2023-05-15T08:29:34;94508.59;;;15.70;100.00
12793;BME280;6460;42.684;23.260;2023-05-15T08:32:02;94495.44;;;15.58;100.00
12793;BME280;6460;42.684;23.260;2023-05-15T08:34:30;94502.03;;;15.71;100.00
12793;BME280;6460;42.684;23.260;2023-05-15T08:36:58;94507.47;;;15.54;100.00
12793;BME280;6460;42.684;23.260;2023-05-15T08:39:25;94501.63;;;15.16;100.00
12793;BME280;6460;42.684;23.260;2023-05-15T08:41:56;94502.81;;;15.54;100.00
12793;BME280;6460;42.684;23.260;2023-05-15T08:44:24;94493.13;;;15.25;100.00
12793;BME280;6460;42.684;23.260;2023-05-15T08:46:52;94499.31;;;15.22;100.00
12793;BME280;6460;42.684;23.260;2023-05-15T08:49:31;94499.66;;;15.10;100.00
12793;BME280;6460;42.684;23.260;2023-05-15T08:51:59;94491.56;;;15.03;100.00
12793;BME280;6460;42.684;23.260;2023-05-15T08:54:27;94496.22;;;15.55;100.00
12793;BME280;6460;42.684;23.260;2023-05-15T08:56:56;94494.25;;;15.73;100.00
12793;BME280;6460;42.684;23.260;2023-05-15T08:59:24;94486.13;;;15.95;100.00
12793;BME280;6460;42.684;23.260;2023-05-15T09:01:52;94481.03;;;16.11;100.00
12793;BME280;6460;42.684;23.260;2023-05-15T09:04:20;94479.94;;;15.80;100.00
12793;BME280;6460;42.684;23.260;2023-05-15T09:06:48;94484.25;;;15.56;100.00
12793;BME280;6460;42.684;23.260;2023-05-15T09:09:17;94480.72;;;15.73;100.00
12793;BME280;6460;42.684;23.260;2023-05-15T09:11:46;94475.59;;;16.14;100.00
12793;BME280;6460;42.684;23.260;2023-05-15T09:14:15;94469.84;;;15.95;100.00
12793;BME280;6460;42.684;23.260;2023-05-15T09:16:42;94468.25;;;16.08;100.00
12793;BME280;6460;42.684;23.260;2023-05-15T09:19:11;94469.78;;;16.12;100.00
12793;BME280;6460;42.684;23.260;2023-05-15T09:21:39;94466.25;;;16.26;100.00
12793;BME280;6460;42.684;23.260;2023-05-15T09:24:17;94472.53;;;16.02;100.00
12793;BME280;6460;42.684;23.260;2023-05-15T09:26:46;94463.66;;;15.94;100.00
12793;BME280;6460;42.684;23.260;2023-05-15T09:29:16;94465.91;;;16.10;100.00
12793;BME280;6460;42.684;23.260;2023-05-15T09:31:45;94453.53;;;16.09;100.00
12793;BME280;6460;42.684;23.260;2023-05-15T09:34:13;94457.16;;;15.28;100.00
12793;BME280;6460;42.684;23.260;2023-05-15T09:36:44;94450.56;;;15.57;100.00
12793;BME280;6460;42.684;23.260;2023-05-15T09:39:11;94441.28;;;15.48;100.00
12793;BME280;6460;42.684;23.260;2023-05-15T09:41:40;94434.34;;;15.50;100.00
12793;BME280;6460;42.684;23.260;2023-05-15T09:44:19;94434.22;;;15.93;100.00
12793;BME280;6460;42.684;23.260;2023-05-15T09:46:50;94430.34;;;16.01;100.00
12793;BME280;6460;42.684;23.260;2023-05-15T09:49:17;94432.69;;;15.92;100.00
12793;BME280;6460;42.684;23.260;2023-05-15T09:51:45;94435.72;;;16.08;100.00
12793;BME280;6460;42.684;23.260;2023-05-15T09:54:16;94431.00;;;16.26;100.00
12793;BME280;6460;42.684;23.260;2023-05-15T09:56:44;94431.84;;;16.05;100.00
12793;BME280;6460;42.684;23.260;2023-05-15T09:59:12;94431.00;;;16.29;100.00
12793;BME280;6460;42.684;23.260;2023-05-15T10:01:43;94429.53;;;16.11;100.00
12793;BME280;6460;42.684;23.260;2023-05-15T10:04:11;94422.03;;;16.36;100.00
12793;BME280;6460;42.684;23.260;2023-05-15T10:06:40;94430.97;;;16.36;100.00
12793;BME280;6460;42.684;23.260;2023-05-15T10:09:07;94438.28;;;16.43;100.00
12793;BME280;6460;42.684;23.260;2023-05-15T10:11:36;94417.75;;;16.42;100.00
12793;BME280;6460;42.684;23.260;2023-05-15T10:14:04;94428.53;;;16.56;100.00
12793;BME280;6460;42.684;23.260;2023-05-15T10:16:33;94431.63;;;16.62;100.00
12793;BME280;6460;42.684;23.260;2023-05-15T10:19:04;94444.81;;;16.56;100.00
12793;BME280;6460;42.684;23.260;2023-05-15T10:21:33;94447.03;;;16.75;100.00
12793;BME280;6460;42.684;23.260;2023-05-15T10:24:01;94454.09;;;16.62;100.00
12793;BME280;6460;42.684;23.260;2023-05-15T10:26:35;94444.06;;;16.56;100.00
12793;BME280;6460;42.684;23.260;2023-05-15T10:29:05;94450.81;;;16.12;100.00
12793;BME280;6460;42.684;23.260;2023-05-15T10:31:33;94466.50;;;16.63;100.00
12793;BME280;6460;42.684;23.260;2023-05-15T10:34:02;94464.78;;;16.11;100.00
12793;BME280;6460;42.684;23.260;2023-05-15T10:36:31;94466.50;;;16.63;100.00
12793;BME280;6460;42.684;23.260;2023-05-15T10:38:59;94460.34;;;16.52;100.00
12793;BME280;6460;42.684;23.260;2023-05-15T10:41:27;94465.59;;;16.87;100.00
12793;BME280;6460;42.684;23.260;2023-05-15T10:43:57;94471.81;;;16.84;100.00
12793;BME280;6460;42.684;23.260;2023-05-15T10:46:25;94461.00;;;16.77;100.00
12793;BME280;6460;42.684;23.260;2023-05-15T10:48:52;94455.13;;;16.82;100.00
12793;BME280;6460;42.684;23.260;2023-05-15T10:51:26;94460.03;;;17.02;100.00
12793;BME280;6460;42.684;23.260;2023-05-15T10:53:54;94459.97;;;17.12;100.00
12793;BME280;6460;42.684;23.260;2023-05-15T10:56:25;94458.75;;;17.20;100.00
12793;BME280;6460;42.684;23.260;2023-05-15T10:58:54;94459.09;;;17.26;100.00
12793;BME280;6460;42.684;23.260;2023-05-15T11:01:26;94440.50;;;17.21;100.00
12793;BME280;6460;42.684;23.260;2023-05-15T11:04:04;94442.81;;;17.26;100.00
12793;BME280;6460;42.684;23.260;2023-05-15T11:06:34;94437.44;;;17.19;100.00
12793;BME280;6460;42.684;23.260;2023-05-15T11:09:36;94442.84;;;17.22;100.00
12793;BME280;6460;42.684;23.260;2023-05-15T11:12:05;94442.88;;;17.15;100.00
12793;BME280;6460;42.684;23.260;2023-05-15T11:14:35;94442.47;;;17.17;100.00
12793;BME280;6460;42.684;23.260;2023-05-15T11:17:05;94431.56;;;17.24;100.00
12793;BME280;6460;42.684;23.260;2023-05-15T11:19:37;94429.88;;;16.92;100.00
12793;BME280;6460;42.684;23.260;2023-05-15T11:22:18;94451.06;;;17.12;100.00
12793;BME280;6460;42.684;23.260;2023-05-15T11:24:50;94441.56;;;17.34;100.00
12793;BME280;6460;42.684;23.260;2023-05-15T11:27:20;94442.31;;;17.38;100.00
12793;BME280;6460;42.684;23.260;2023-05-15T11:30:10;94455.47;;;17.39;100.00
12793;BME280;6460;42.684;23.260;2023-05-15T11:32:49;94433.94;;;17.63;100.00
12793;BME280;6460;42.684;23.260;2023-05-15T11:35:25;94437.69;;;17.35;100.00
12793;BME280;6460;42.684;23.260;2023-05-15T11:37:55;94420.88;;;17.88;100.00
12793;BME280;6460;42.684;23.260;2023-05-15T11:40:24;94420.63;;;17.75;100.00
12793;BME280;6460;42.684;23.260;2023-05-15T11:43:01;94409.16;;;17.94;100.00
12793;BME280;6460;42.684;23.260;2023-05-15T11:45:30;94406.91;;;18.20;100.00
12793;BME280;6460;42.684;23.260;2023-05-15T11:48:00;94407.91;;;18.33;100.00
12793;BME280;6460;42.684;23.260;2023-05-15T11:50:30;94414.75;;;18.75;100.00
12793;BME280;6460;42.684;23.260;2023-05-15T11:53:01;94417.28;;;18.62;100.00
12793;BME280;6460;42.684;23.260;2023-05-15T11:55:31;94410.44;;;19.04;100.00
12793;BME280;6460;42.684;23.260;2023-05-15T11:57:58;94402.22;;;19.08;100.00
12793;BME280;6460;42.684;23.260;2023-05-15T12:00:26;94404.78;;;19.15;100.00
12793;BME280;6460;42.684;23.260;2023-05-15T12:02:53;94409.16;;;18.85;100.00
12793;BME280;6460;42.684;23.260;2023-05-15T12:05:22;94395.78;;;18.68;100.00
12793;BME280;6460;42.684;23.260;2023-05-15T12:07:49;94391.03;;;18.45;86.90
12793;BME280;6460;42.684;23.260;2023-05-15T12:10:18;94398.47;;;19.21;82.94
12793;BME280;6460;42.684;23.260;2023-05-15T12:12:46;94396.72;;;18.84;82.03
12793;BME280;6460;42.684;23.260;2023-05-15T12:15:14;94388.78;;;19.20;80.54
12793;BME280;6460;42.684;23.260;2023-05-15T12:17:43;94395.91;;;19.34;81.87
12793;BME280;6460;42.684;23.260;2023-05-15T12:20:14;94397.94;;;19.53;80.28
12793;BME280;6460;42.684;23.260;2023-05-15T12:22:41;94383.19;;;19.50;79.28
12793;BME280;6460;42.684;23.260;2023-05-15T12:25:10;94374.59;;;19.06;82.06
12793;BME280;6460;42.684;23.260;2023-05-15T12:27:39;94354.41;;;19.03;82.97
12793;BME280;6460;42.684;23.260;2023-05-15T12:30:07;94345.47;;;19.26;83.07
12793;BME280;6460;42.684;23.260;2023-05-15T12:32:37;94335.22;;;19.33;81.54
12793;BME280;6460;42.684;23.260;2023-05-15T12:35:06;94335.03;;;19.44;83.07
12793;BME280;6460;42.684;23.260;2023-05-15T12:37:34;94339.28;;;20.24;80.69
12793;BME280;6460;42.684;23.260;2023-05-15T12:40:04;94330.00;;;20.41;79.54
12793;BME280;6460;42.684;23.260;2023-05-15T12:42:40;94320.91;;;20.64;77.23
12793;BME280;6460;42.684;23.260;2023-05-15T12:45:14;94310.75;;;20.64;76.17
12793;BME280;6460;42.684;23.260;2023-05-15T12:47:42;94307.59;;;20.82;74.74
12793;BME280;6460;42.684;23.260;2023-05-15T12:50:14;94314.50;;;21.02;74.29
12793;BME280;6460;42.684;23.260;2023-05-15T12:52:52;94312.25;;;21.30;73.54
12793;BME280;6460;42.684;23.260;2023-05-15T12:55:22;94325.59;;;20.95;73.44
12793;BME280;6460;42.684;23.260;2023-05-15T12:57:52;94322.16;;;21.40;71.66
12793;BME280;6460;42.684;23.260;2023-05-15T13:00:21;94328.97;;;21.77;69.65
12793;BME280;6460;42.684;23.260;2023-05-15T13:02:52;94317.31;;;22.18;68.72